createdAt,value
2019-03-26T00:00:44.864Z,2.50
2019-03-26T00:03:12.499Z,2.50
2019-03-26T00:05:40.126Z,2.40
2019-03-26T00:08:15.886Z,2.40
2019-03-26T00:10:43.521Z,2.40
2019-03-26T00:13:11.183Z,2.40
2019-03-26T00:15:38.811Z,2.40
2019-03-26T00:18:06.458Z,2.50
2019-03-26T00:20:34.089Z,2.50
2019-03-26T00:23:01.732Z,2.50
2019-03-26T00:25:29.354Z,2.60
2019-03-26T00:27:56.992Z,2.60
2019-03-26T00:30:24.627Z,2.60
2019-03-26T00:32:52.270Z,2.60
2019-03-26T00:35:19.898Z,2.60
2019-03-26T00:37:47.550Z,2.60
2019-03-26T00:40:15.198Z,2.50
2019-03-26T00:42:42.822Z,2.50
2019-03-26T00:45:10.446Z,2.40
2019-03-26T00:47:38.091Z,2.30
2019-03-26T00:50:06.186Z,2.30
2019-03-26T00:52:33.814Z,2.30
2019-03-26T00:55:01.465Z,2.20
2019-03-26T00:57:29.087Z,2.20
2019-03-26T00:59:56.730Z,2.20
2019-03-26T01:02:24.359Z,2.00
2019-03-26T01:04:51.998Z,1.90
2019-03-26T01:07:19.631Z,1.90
2019-03-26T01:09:47.274Z,1.90
2019-03-26T01:12:14.899Z,1.80
2019-03-26T01:14:42.546Z,1.70
2019-03-26T01:19:41.259Z,1.60
2019-03-26T01:22:08.883Z,1.60
2019-03-26T01:24:36.526Z,1.60
2019-03-26T01:27:04.152Z,1.60
2019-03-26T01:29:31.843Z,1.60
2019-03-26T01:31:59.471Z,1.60
2019-03-26T01:34:27.111Z,1.60
2019-03-26T01:36:54.738Z,1.60
2019-03-26T01:39:22.379Z,1.70
2019-03-26T01:41:50.025Z,1.70
2019-03-26T01:44:17.670Z,1.80
2019-03-26T01:46:45.291Z,1.70
2019-03-26T01:49:21.882Z,1.70
2019-03-26T01:51:49.504Z,1.70
2019-03-26T01:54:17.145Z,1.70
2019-03-26T01:56:44.778Z,1.60
2019-03-26T01:59:12.423Z,1.70
2019-03-26T02:01:40.051Z,1.70
2019-03-26T02:04:07.766Z,1.70
2019-03-26T02:06:35.406Z,1.80
2019-03-26T02:09:03.814Z,1.90
2019-03-26T02:11:31.442Z,1.90
2019-03-26T02:13:59.087Z,1.90
2019-03-26T02:16:26.719Z,1.90
2019-03-26T02:18:57.406Z,1.70
2019-03-26T02:21:25.038Z,1.60
2019-03-26T02:23:52.674Z,1.60
2019-03-26T02:26:20.315Z,1.60
2019-03-26T02:28:55.710Z,1.60
2019-03-26T02:31:23.347Z,1.60
2019-03-26T02:33:50.975Z,1.60
2019-03-26T02:36:18.624Z,1.60
2019-03-26T02:38:46.254Z,1.70
2019-03-26T02:41:13.893Z,1.70
2019-03-26T02:43:41.543Z,1.60
2019-03-26T02:46:09.182Z,1.70
2019-03-26T02:48:36.811Z,1.70
2019-03-26T02:51:04.455Z,1.70
2019-03-26T02:53:32.084Z,1.80
2019-03-26T02:55:59.734Z,1.80
2019-03-26T02:58:27.360Z,1.90
2019-03-26T03:00:55.011Z,1.90
2019-03-26T03:03:22.652Z,1.90
2019-03-26T03:05:50.295Z,1.80
2019-03-26T03:08:17.927Z,1.70
2019-03-26T03:10:45.648Z,1.70
2019-03-26T03:13:13.274Z,1.70
2019-03-26T03:15:40.989Z,1.70
2019-03-26T03:18:08.621Z,1.80
2019-03-26T03:20:36.316Z,1.90
2019-03-26T03:23:03.935Z,1.90
2019-03-26T03:25:31.583Z,1.90
2019-03-26T03:27:59.207Z,2.00
2019-03-26T03:30:26.856Z,2.00
2019-03-26T03:32:54.484Z,2.00
2019-03-26T03:35:22.123Z,1.90
2019-03-26T03:37:49.754Z,2.00
2019-03-26T03:40:17.395Z,2.00
2019-03-26T03:42:45.029Z,2.10
2019-03-26T03:45:13.055Z,2.10
2019-03-26T03:47:40.703Z,2.10
2019-03-26T03:50:09.870Z,2.10
2019-03-26T03:52:38.970Z,2.00
2019-03-26T03:55:06.674Z,2.00
2019-03-26T03:57:35.854Z,2.00
2019-03-26T04:00:03.560Z,2.00
2019-03-26T04:02:31.202Z,2.10
2019-03-26T04:04:58.834Z,2.10
2019-03-26T04:07:26.475Z,2.10
2019-03-26T04:09:55.151Z,2.10
2019-03-26T04:12:22.795Z,2.10
2019-03-26T04:14:50.443Z,2.20
2019-03-26T04:17:18.139Z,2.20
2019-03-26T04:19:48.444Z,2.40
2019-03-26T04:22:16.090Z,2.40
2019-03-26T04:24:43.711Z,2.50
2019-03-26T04:27:11.430Z,2.60
2019-03-26T04:29:39.054Z,2.60
2019-03-26T04:32:06.703Z,2.70
2019-03-26T04:34:34.333Z,2.80
2019-03-26T04:37:01.976Z,2.80
2019-03-26T04:39:29.605Z,2.90
2019-03-26T04:41:57.243Z,2.90
2019-03-26T04:44:24.874Z,3.00
2019-03-26T04:46:52.520Z,3.00
2019-03-26T04:49:20.151Z,2.90
2019-03-26T04:51:47.795Z,2.80
2019-03-26T04:54:15.422Z,2.80
2019-03-26T04:56:43.091Z,2.70
2019-03-26T04:59:11.664Z,2.60
2019-03-26T05:01:39.302Z,2.50
2019-03-26T05:04:06.931Z,2.50
2019-03-26T05:06:38.174Z,2.50
2019-03-26T05:09:04.798Z,2.50
2019-03-26T05:11:32.484Z,2.50
2019-03-26T05:14:00.123Z,2.50
2019-03-26T05:16:27.766Z,2.60
2019-03-26T05:18:55.410Z,2.60
2019-03-26T05:21:23.043Z,2.60
2019-03-26T05:23:52.037Z,2.60
2019-03-26T05:26:19.798Z,2.70
2019-03-26T05:28:47.451Z,2.70
2019-03-26T05:31:15.075Z,2.70
2019-03-26T05:33:42.726Z,2.70
2019-03-26T05:36:10.367Z,2.70
2019-03-26T05:38:38.010Z,2.80
2019-03-26T05:41:05.649Z,2.80
2019-03-26T05:43:33.290Z,2.80
2019-03-26T05:46:00.926Z,2.90
2019-03-26T05:48:28.562Z,2.90
2019-03-26T05:50:56.194Z,2.80
2019-03-26T05:53:23.842Z,2.80
2019-03-26T05:55:51.472Z,2.80
2019-03-26T05:58:19.106Z,2.80
2019-03-26T06:00:46.746Z,2.90
2019-03-26T06:03:14.391Z,2.90
2019-03-26T06:05:42.056Z,2.90
2019-03-26T06:08:09.687Z,3.00
2019-03-26T06:10:37.319Z,3.10
2019-03-26T06:13:04.987Z,3.10
2019-03-26T06:15:32.657Z,3.20
2019-03-26T06:18:00.285Z,3.30
2019-03-26T06:20:27.928Z,3.30
2019-03-26T06:22:55.551Z,3.40
2019-03-26T06:25:23.201Z,3.40
2019-03-26T06:27:50.826Z,3.40
2019-03-26T06:30:18.473Z,3.40
2019-03-26T06:32:46.170Z,3.40
2019-03-26T06:35:13.812Z,3.50
2019-03-26T06:37:41.439Z,3.50
2019-03-26T06:40:09.456Z,3.50
2019-03-26T06:42:37.082Z,3.60
2019-03-26T06:45:06.394Z,3.70
2019-03-26T06:47:34.046Z,3.80
2019-03-26T06:50:01.687Z,4.00
2019-03-26T06:52:29.321Z,4.10
2019-03-26T06:54:56.959Z,4.30
2019-03-26T06:57:34.848Z,4.30
2019-03-26T06:59:53.967Z,4.30
2019-03-26T07:02:21.595Z,4.40
2019-03-26T07:04:49.238Z,4.40
2019-03-26T07:07:16.866Z,4.50
2019-03-26T07:09:44.518Z,4.60
2019-03-26T07:12:12.152Z,4.50
2019-03-26T07:14:39.786Z,4.70
2019-03-26T07:17:07.432Z,4.80
2019-03-26T07:19:35.071Z,4.90
2019-03-26T07:22:02.876Z,4.80
2019-03-26T07:24:30.702Z,4.80
2019-03-26T07:26:58.342Z,4.90
2019-03-26T07:29:26.031Z,5.00
2019-03-26T07:31:53.710Z,5.10
2019-03-26T07:34:21.354Z,5.20
2019-03-26T07:36:48.987Z,5.40
2019-03-26T07:39:16.636Z,5.30
2019-03-26T07:41:44.286Z,5.40
2019-03-26T07:44:11.916Z,5.60
2019-03-26T07:46:39.636Z,5.60
2019-03-26T07:49:07.255Z,5.60
2019-03-26T07:51:34.903Z,5.80
2019-03-26T07:54:02.551Z,5.90
2019-03-26T07:56:30.255Z,5.70
2019-03-26T07:58:59.870Z,5.90
2019-03-26T08:01:27.530Z,6.10
2019-03-26T08:03:55.164Z,6.20
2019-03-26T08:06:22.817Z,6.40
2019-03-26T08:08:50.451Z,6.40
2019-03-26T08:11:18.086Z,6.40
2019-03-26T08:13:45.725Z,6.60
2019-03-26T08:16:13.452Z,6.70
2019-03-26T08:18:41.151Z,6.90
2019-03-26T08:21:08.804Z,6.60
2019-03-26T08:23:38.437Z,6.90
2019-03-26T08:28:33.151Z,7.40
2019-03-26T08:31:00.795Z,7.80
2019-03-26T08:33:28.443Z,7.80
2019-03-26T08:35:56.082Z,7.70
2019-03-26T08:38:23.714Z,7.80
2019-03-26T08:40:51.367Z,7.70
2019-03-26T08:43:19.000Z,7.40
2019-03-26T08:45:46.645Z,7.30
2019-03-26T08:48:14.275Z,7.50
2019-03-26T08:50:41.900Z,7.60
2019-03-26T08:53:09.539Z,7.60
2019-03-26T08:55:37.166Z,7.70
2019-03-26T08:58:04.810Z,7.70
2019-03-26T09:00:32.443Z,7.40
2019-03-26T09:03:00.154Z,7.40
2019-03-26T09:05:27.794Z,7.30
2019-03-26T09:07:55.435Z,7.50
2019-03-26T09:10:23.070Z,7.50
2019-03-26T09:12:50.712Z,7.80
2019-03-26T09:15:18.337Z,7.70
2019-03-26T09:17:45.974Z,7.30
2019-03-26T09:20:13.602Z,7.30
2019-03-26T09:22:41.247Z,7.20
2019-03-26T09:25:09.147Z,7.20
2019-03-26T09:27:36.792Z,7.40
2019-03-26T09:30:09.286Z,7.60
2019-03-26T09:32:37.091Z,7.60
2019-03-26T09:35:06.098Z,7.60
2019-03-26T09:37:33.727Z,7.40
2019-03-26T09:40:01.377Z,7.70
2019-03-26T09:42:29.002Z,7.90
2019-03-26T09:44:56.809Z,8.00
2019-03-26T09:47:24.454Z,7.90
2019-03-26T09:49:52.103Z,8.20
2019-03-26T09:54:47.114Z,8.70
2019-03-26T09:57:14.750Z,9.30
2019-03-26T09:59:42.375Z,9.50
2019-03-26T10:02:10.020Z,9.50
2019-03-26T10:04:37.650Z,9.50
2019-03-26T10:07:05.386Z,8.70
2019-03-26T10:09:33.067Z,8.10
2019-03-26T10:12:00.722Z,7.90
2019-03-26T10:14:28.350Z,7.80
2019-03-26T10:16:56.003Z,7.80
2019-03-26T10:19:23.631Z,7.80
2019-03-26T10:21:51.276Z,7.80
2019-03-26T10:24:18.899Z,7.30
2019-03-26T10:26:46.550Z,7.00
2019-03-26T10:29:29.143Z,6.90
2019-03-26T10:31:43.554Z,6.80
2019-03-26T10:34:11.176Z,6.80
2019-03-26T10:36:41.498Z,6.80
2019-03-26T10:39:19.163Z,7.00
2019-03-26T10:41:46.799Z,7.20
2019-03-26T10:44:14.427Z,7.20
2019-03-26T10:46:44.467Z,7.30
2019-03-26T10:49:11.422Z,7.10
2019-03-26T10:51:39.066Z,6.90
2019-03-26T10:54:06.876Z,6.80
2019-03-26T10:56:34.515Z,6.90
2019-03-26T10:59:04.203Z,6.80
2019-03-26T11:01:31.507Z,6.80
2019-03-26T11:03:59.139Z,6.70
2019-03-26T11:06:26.782Z,6.60
2019-03-26T11:08:54.421Z,6.50
2019-03-26T11:11:22.062Z,6.80
2019-03-26T11:13:49.691Z,7.00
2019-03-26T11:16:17.327Z,7.00
2019-03-26T11:18:44.966Z,7.10
2019-03-26T11:21:12.606Z,7.10
2019-03-26T11:23:40.242Z,7.10
2019-03-26T11:26:07.875Z,7.30
2019-03-26T11:28:35.564Z,7.40
2019-03-26T11:31:03.219Z,7.20
2019-03-26T11:33:30.860Z,7.00
2019-03-26T11:35:58.490Z,6.90
2019-03-26T11:38:26.143Z,7.00
2019-03-26T11:40:53.767Z,7.10
2019-03-26T11:43:21.478Z,7.30
2019-03-26T11:45:49.114Z,7.20
2019-03-26T11:48:27.831Z,7.30
2019-03-26T11:50:55.459Z,7.40
2019-03-26T11:53:23.099Z,7.40
2019-03-26T11:55:50.727Z,7.80
2019-03-26T11:58:29.949Z,7.90
2019-03-26T12:00:47.735Z,7.60
2019-03-26T12:03:15.375Z,7.50
2019-03-26T12:05:43.011Z,7.40
2019-03-26T12:08:10.658Z,7.50
2019-03-26T12:10:38.285Z,7.50
2019-03-26T12:13:05.946Z,7.30
2019-03-26T12:15:33.581Z,7.40
2019-03-26T12:18:01.207Z,7.30
2019-03-26T12:20:28.859Z,7.50
2019-03-26T12:22:56.491Z,7.20
2019-03-26T12:25:24.137Z,7.40
2019-03-26T12:27:51.769Z,7.60
2019-03-26T12:30:20.951Z,7.80
2019-03-26T12:32:48.587Z,8.20
2019-03-26T12:35:17.763Z,8.60
2019-03-26T12:37:45.396Z,8.40
2019-03-26T12:40:13.123Z,8.70
2019-03-26T12:42:40.753Z,8.30
2019-03-26T12:45:08.479Z,8.20
2019-03-26T12:47:36.103Z,8.30
2019-03-26T12:50:05.214Z,8.30
2019-03-26T12:52:32.841Z,8.60
2019-03-26T12:55:00.485Z,8.80
2019-03-26T12:57:28.117Z,8.60
2019-03-26T12:59:56.666Z,8.80
2019-03-26T13:02:24.295Z,8.80
2019-03-26T13:04:51.942Z,8.80
2019-03-26T13:07:19.571Z,8.80
2019-03-26T13:09:47.207Z,8.80
2019-03-26T13:12:14.840Z,8.30
2019-03-26T13:14:42.490Z,8.20
2019-03-26T13:17:10.127Z,8.40
2019-03-26T13:19:43.795Z,8.10
2019-03-26T13:22:11.419Z,8.10
2019-03-26T13:24:39.059Z,8.00
2019-03-26T13:27:06.706Z,8.10
2019-03-26T13:29:34.369Z,8.30
2019-03-26T13:32:01.986Z,8.50
2019-03-26T13:34:29.647Z,8.40
2019-03-26T13:36:57.277Z,9.10
2019-03-26T13:39:24.926Z,9.40
2019-03-26T13:41:52.555Z,9.70
2019-03-26T13:44:20.191Z,9.60
2019-03-26T13:46:47.826Z,9.70
2019-03-26T13:49:24.327Z,9.10
2019-03-26T13:51:51.967Z,9.20
2019-03-26T13:54:19.599Z,9.20
2019-03-26T13:56:47.243Z,8.70
2019-03-26T13:59:14.874Z,8.90
2019-03-26T14:01:42.549Z,8.90
2019-03-26T14:04:10.204Z,9.20
2019-03-26T14:06:37.881Z,8.50
2019-03-26T14:09:08.155Z,8.50
2019-03-26T14:11:35.791Z,8.60
2019-03-26T14:14:03.817Z,8.30
2019-03-26T14:16:31.446Z,8.30
2019-03-26T14:19:02.096Z,8.30
2019-03-26T14:21:29.740Z,8.50
2019-03-26T14:23:57.371Z,8.80
2019-03-26T14:26:25.010Z,8.30
2019-03-26T14:28:52.650Z,8.60
2019-03-26T14:31:20.292Z,8.60
2019-03-26T14:33:47.923Z,8.80
2019-03-26T14:36:15.570Z,8.60
2019-03-26T14:38:46.268Z,8.60
2019-03-26T14:41:13.906Z,8.10
2019-03-26T14:43:41.539Z,8.80
2019-03-26T14:46:09.184Z,9.00
2019-03-26T14:48:36.832Z,8.50
2019-03-26T14:51:04.471Z,8.80
2019-03-26T14:53:32.107Z,8.10
2019-03-26T14:55:59.766Z,8.10
2019-03-26T14:58:30.432Z,8.20
2019-03-26T15:00:59.699Z,8.20
2019-03-26T15:03:27.582Z,8.30
2019-03-26T15:05:55.227Z,9.10
2019-03-26T15:08:22.878Z,9.60
2019-03-26T15:10:50.514Z,9.40
2019-03-26T15:13:18.148Z,9.50
2019-03-26T15:15:45.786Z,9.00
2019-03-26T15:18:13.414Z,8.50
2019-03-26T15:20:41.042Z,8.10
2019-03-26T15:23:08.683Z,8.10
2019-03-26T15:28:04.614Z,7.90
2019-03-26T15:30:32.243Z,7.90
2019-03-26T15:32:59.886Z,7.70
2019-03-26T15:35:27.518Z,7.70
2019-03-26T15:37:55.237Z,7.70
2019-03-26T15:40:22.871Z,7.60
2019-03-26T15:42:50.518Z,7.70
2019-03-26T15:45:18.218Z,7.70
2019-03-26T15:47:45.898Z,7.70
2019-03-26T15:50:15.062Z,7.60
2019-03-26T15:52:42.711Z,7.60
2019-03-26T15:55:10.615Z,7.80
2019-03-26T15:57:38.258Z,7.70
2019-03-26T16:00:07.053Z,7.50
2019-03-26T16:02:34.691Z,7.60
2019-03-26T16:05:02.397Z,7.50
2019-03-26T16:07:33.047Z,7.50
2019-03-26T16:09:59.419Z,7.40
2019-03-26T16:12:40.304Z,7.40
2019-03-26T16:14:56.434Z,7.40
2019-03-26T16:17:24.099Z,7.20
2019-03-26T16:19:59.636Z,7.20
2019-03-26T16:22:27.271Z,7.30
2019-03-26T16:24:54.907Z,7.20
2019-03-26T16:27:22.563Z,7.20
2019-03-26T16:29:52.121Z,7.10
2019-03-26T16:32:19.770Z,7.10
2019-03-26T16:34:47.403Z,6.90
2019-03-26T16:37:15.073Z,6.70
2019-03-26T16:39:42.703Z,6.70
2019-03-26T16:42:10.350Z,6.60
2019-03-26T16:44:37.979Z,6.60
2019-03-26T16:47:05.625Z,6.60
2019-03-26T16:49:38.426Z,6.60
2019-03-26T16:52:06.069Z,6.60
2019-03-26T16:57:01.078Z,6.20
2019-03-26T16:59:28.714Z,6.50
2019-03-26T17:01:56.343Z,6.50
2019-03-26T17:04:24.003Z,6.40
2019-03-26T17:06:51.634Z,6.40
2019-03-26T17:09:19.271Z,6.40
2019-03-26T17:11:46.898Z,6.40
2019-03-26T17:14:14.547Z,6.30
2019-03-26T17:16:42.205Z,6.30
2019-03-26T17:19:09.847Z,6.40
2019-03-26T17:21:37.503Z,6.30
2019-03-26T17:24:05.190Z,6.30
2019-03-26T17:26:33.655Z,6.30
2019-03-26T17:29:25.638Z,6.20
2019-03-26T17:31:53.271Z,6.20
2019-03-26T17:34:20.920Z,6.10
2019-03-26T17:36:48.552Z,6.20
2019-03-26T17:39:17.170Z,6.20
2019-03-26T17:41:44.803Z,6.20
2019-03-26T17:44:12.443Z,6.20
2019-03-26T17:46:40.070Z,6.20
2019-03-26T17:49:07.716Z,6.20
2019-03-26T17:51:35.343Z,6.10
2019-03-26T17:54:02.986Z,6.10
2019-03-26T17:56:30.615Z,6.10
2019-03-26T17:58:58.255Z,6.10
2019-03-26T18:01:25.957Z,6.10
2019-03-26T18:03:53.598Z,6.10
2019-03-26T18:06:21.232Z,6.00
2019-03-26T18:09:01.088Z,6.00
2019-03-26T18:11:28.718Z,6.00
2019-03-26T18:13:56.359Z,5.90
2019-03-26T18:16:23.995Z,6.00
2019-03-26T18:19:04.758Z,5.90
2019-03-26T18:21:32.387Z,5.80
2019-03-26T18:24:00.027Z,5.80
2019-03-26T18:26:27.658Z,5.80
2019-03-26T18:29:01.022Z,5.80
2019-03-26T18:31:28.647Z,5.80
2019-03-26T18:33:56.289Z,5.80
2019-03-26T18:36:23.914Z,5.70
2019-03-26T18:38:51.562Z,5.60
2019-03-26T18:41:26.066Z,5.70
2019-03-26T18:43:53.694Z,5.70
2019-03-26T18:46:21.334Z,5.80
2019-03-26T18:48:48.967Z,5.70
2019-03-26T18:51:23.482Z,5.70
2019-03-26T18:53:51.118Z,5.80
2019-03-26T18:56:18.762Z,5.70
2019-03-26T18:58:46.398Z,5.80
2019-03-26T19:01:14.036Z,5.80
2019-03-26T19:03:41.674Z,5.90
2019-03-26T19:06:09.331Z,5.80
2019-03-26T19:08:39.836Z,5.90
2019-03-26T19:11:06.394Z,5.90
2019-03-26T19:13:34.018Z,5.80
2019-03-26T19:16:01.667Z,5.80
2019-03-26T19:18:29.310Z,5.70
2019-03-26T19:21:02.491Z,5.60
2019-03-26T19:23:26.303Z,5.60
2019-03-26T19:25:53.946Z,5.60
2019-03-26T19:28:22.490Z,5.60
2019-03-26T19:30:50.134Z,5.60
2019-03-26T19:33:17.758Z,5.50
2019-03-26T19:35:45.408Z,5.60
2019-03-26T19:38:13.038Z,5.60
2019-03-26T19:40:40.680Z,5.60
2019-03-26T19:43:11.319Z,5.60
2019-03-26T19:45:37.672Z,5.70
2019-03-26T19:48:11.171Z,5.70
2019-03-26T19:50:38.816Z,5.70
2019-03-26T19:53:06.444Z,5.70
2019-03-26T19:55:34.082Z,5.70
2019-03-26T19:58:01.712Z,5.70
2019-03-26T20:00:29.340Z,5.80
2019-03-26T20:02:56.987Z,5.80
2019-03-26T20:05:24.612Z,5.80
2019-03-26T20:07:55.326Z,5.90
2019-03-26T20:10:22.996Z,5.90
2019-03-26T20:12:50.783Z,5.90
2019-03-26T20:15:20.286Z,5.90
2019-03-26T20:17:47.936Z,5.90
2019-03-26T20:20:15.935Z,5.90
2019-03-26T20:22:43.579Z,5.80
2019-03-26T20:25:11.580Z,5.80
2019-03-26T20:27:39.218Z,5.80
2019-03-26T20:30:07.415Z,5.80
2019-03-26T20:32:35.059Z,5.80
2019-03-26T20:35:03.459Z,5.80
2019-03-26T20:37:31.098Z,5.90
2019-03-26T20:39:58.747Z,5.90
2019-03-26T20:42:26.391Z,5.80
2019-03-26T20:44:54.028Z,5.80
2019-03-26T20:47:21.676Z,5.80
2019-03-26T20:49:50.282Z,5.80
2019-03-26T20:52:17.915Z,5.70
2019-03-26T20:54:45.542Z,5.70
2019-03-26T20:57:13.759Z,5.70
2019-03-26T20:59:41.387Z,5.70
2019-03-26T21:02:09.030Z,5.80
2019-03-26T21:04:36.659Z,5.80
2019-03-26T21:07:04.298Z,5.80
2019-03-26T21:09:42.010Z,5.80
2019-03-26T21:12:09.650Z,5.80
2019-03-26T21:14:37.278Z,5.80
2019-03-26T21:17:04.908Z,5.80
2019-03-26T21:19:32.567Z,5.80
2019-03-26T21:22:00.198Z,5.80
2019-03-26T21:24:27.843Z,5.70
2019-03-26T21:26:55.471Z,5.70
2019-03-26T21:29:23.119Z,5.80
2019-03-26T21:31:50.740Z,5.80
2019-03-26T21:34:29.899Z,5.80
2019-03-26T21:36:47.730Z,5.80
2019-03-26T21:39:24.202Z,5.90
2019-03-26T21:41:51.828Z,5.90
2019-03-26T21:44:19.478Z,5.90
2019-03-26T21:46:47.115Z,5.80
2019-03-26T21:49:14.754Z,5.80
2019-03-26T21:51:42.387Z,5.80
2019-03-26T21:54:10.026Z,5.90
2019-03-26T21:56:37.658Z,5.90
2019-03-26T21:59:05.298Z,5.80
2019-03-26T22:01:32.958Z,5.80
2019-03-26T22:04:00.607Z,5.80
2019-03-26T22:06:28.258Z,5.70
2019-03-26T22:08:56.853Z,5.80
2019-03-26T22:11:24.482Z,5.70
2019-03-26T22:13:52.134Z,5.70
2019-03-26T22:16:19.754Z,5.70
2019-03-26T22:18:51.411Z,5.70
2019-03-26T22:21:19.043Z,5.60
2019-03-26T22:23:46.684Z,5.60
2019-03-26T22:26:14.310Z,5.50
2019-03-26T22:28:53.910Z,5.50
2019-03-26T22:31:21.538Z,5.50
2019-03-26T22:33:49.187Z,5.50
2019-03-26T22:36:16.810Z,5.40
2019-03-26T22:39:01.675Z,5.40
2019-03-26T22:41:29.305Z,5.40
2019-03-26T22:43:56.938Z,5.40
2019-03-26T22:46:24.595Z,5.40
2019-03-26T22:49:03.147Z,5.40
2019-03-26T22:51:30.794Z,5.40
2019-03-26T22:53:58.427Z,5.40
2019-03-26T22:56:26.135Z,5.40
2019-03-26T22:58:53.762Z,5.40
2019-03-26T23:01:21.471Z,5.40
2019-03-26T23:03:49.099Z,5.40
2019-03-26T23:06:16.749Z,5.40
2019-03-26T23:08:44.370Z,5.30
2019-03-26T23:11:12.133Z,5.30
2019-03-26T23:13:39.859Z,5.40
2019-03-26T23:16:07.495Z,5.30
2019-03-26T23:18:35.203Z,5.40
2019-03-26T23:21:02.847Z,5.30
2019-03-26T23:23:30.477Z,5.40
2019-03-26T23:25:58.119Z,5.40
2019-03-26T23:28:33.924Z,5.40
2019-03-26T23:31:01.635Z,5.30
2019-03-26T23:33:29.266Z,5.30
2019-03-26T23:35:56.982Z,5.30
2019-03-26T23:38:24.690Z,5.30
2019-03-26T23:40:52.331Z,5.30
2019-03-26T23:43:19.961Z,5.30
2019-03-26T23:45:47.603Z,5.20
2019-03-26T23:48:16.167Z,5.20
2019-03-26T23:50:43.858Z,5.20
2019-03-26T23:53:11.487Z,5.30
2019-03-26T23:55:39.134Z,5.30
2019-03-26T23:58:14.568Z,5.20
